sensor_id;sensor_type;location;lat;lon;timestamp;temperature;humidity
17495;DHT22;8864;51.970;4.614;2022-11-15T00:01:16;17.00;72.70
17495;DHT22;8864;51.970;4.614;2022-11-15T00:03:43;17.00;72.60
17495;DHT22;8864;51.970;4.614;2022-11-15T00:06:11;17.00;73.40
17495;DHT22;8864;51.970;4.614;2022-11-15T00:08:38;17.00;72.60
17495;DHT22;8864;51.970;4.614;2022-11-15T00:11:08;17.00;72.60
17495;DHT22;8864;51.970;4.614;2022-11-15T00:13:36;17.00;72.60
17495;DHT22;8864;51.970;4.614;2022-11-15T00:16:03;17.00;72.50
17495;DHT22;8864;51.970;4.614;2022-11-15T00:18:30;17.00;72.50
17495;DHT22;8864;51.970;4.614;2022-11-15T00:21:03;17.00;72.50
17495;DHT22;8864;51.970;4.614;2022-11-15T00:23:30;17.00;72.50
17495;DHT22;8864;51.970;4.614;2022-11-15T00:25:58;17.00;73.30
17495;DHT22;8864;51.970;4.614;2022-11-15T00:28:26;17.00;72.50
17495;DHT22;8864;51.970;4.614;2022-11-15T00:30:53;17.00;72.50
17495;DHT22;8864;51.970;4.614;2022-11-15T00:33:20;17.00;72.50
17495;DHT22;8864;51.970;4.614;2022-11-15T00:35:47;17.00;72.50
17495;DHT22;8864;51.970;4.614;2022-11-15T00:38:13;16.90;72.40
17495;DHT22;8864;51.970;4.614;2022-11-15T00:40:40;16.90;72.40
17495;DHT22;8864;51.970;4.614;2022-11-15T00:43:07;16.90;72.40
17495;DHT22;8864;51.970;4.614;2022-11-15T00:45:35;17.00;72.50
17495;DHT22;8864;51.970;4.614;2022-11-15T00:48:02;16.90;72.40
17495;DHT22;8864;51.970;4.614;2022-11-15T00:50:29;17.00;72.50
17495;DHT22;8864;51.970;4.614;2022-11-15T00:52:56;16.90;72.40
17495;DHT22;8864;51.970;4.614;2022-11-15T00:55:23;17.00;72.50
17495;DHT22;8864;51.970;4.614;2022-11-15T00:57:50;17.00;72.50
17495;DHT22;8864;51.970;4.614;2022-11-15T01:00:17;17.00;72.40
17495;DHT22;8864;51.970;4.614;2022-11-15T01:02:45;17.00;72.40
17495;DHT22;8864;51.970;4.614;2022-11-15T01:05:11;17.00;72.40
17495;DHT22;8864;51.970;4.614;2022-11-15T01:07:38;17.00;72.40
17495;DHT22;8864;51.970;4.614;2022-11-15T01:10:06;17.00;72.40
17495;DHT22;8864;51.970;4.614;2022-11-15T01:12:33;17.00;72.40
17495;DHT22;8864;51.970;4.614;2022-11-15T01:15:00;17.00;72.40
17495;DHT22;8864;51.970;4.614;2022-11-15T01:17:27;17.00;72.40
17495;DHT22;8864;51.970;4.614;2022-11-15T01:19:55;16.90;72.30
17495;DHT22;8864;51.970;4.614;2022-11-15T01:22:22;16.90;72.60
17495;DHT22;8864;51.970;4.614;2022-11-15T01:24:49;17.00;72.40
17495;DHT22;8864;51.970;4.614;2022-11-15T01:27:16;17.00;72.50
17495;DHT22;8864;51.970;4.614;2022-11-15T01:29:43;17.00;72.40
17495;DHT22;8864;51.970;4.614;2022-11-15T01:32:10;17.00;72.50
17495;DHT22;8864;51.970;4.614;2022-11-15T01:34:37;17.00;72.50
17495;DHT22;8864;51.970;4.614;2022-11-15T01:37:05;17.00;72.50
17495;DHT22;8864;51.970;4.614;2022-11-15T01:39:32;17.00;72.50
17495;DHT22;8864;51.970;4.614;2022-11-15T01:41:58;17.00;72.50
17495;DHT22;8864;51.970;4.614;2022-11-15T01:44:46;16.90;72.40
17495;DHT22;8864;51.970;4.614;2022-11-15T01:47:16;17.00;72.50
17495;DHT22;8864;51.970;4.614;2022-11-15T01:49:49;17.00;72.50
17495;DHT22;8864;51.970;4.614;2022-11-15T01:52:20;17.00;72.60
17495;DHT22;8864;51.970;4.614;2022-11-15T01:54:51;16.90;72.70
17495;DHT22;8864;51.970;4.614;2022-11-15T01:57:19;17.00;72.80
17495;DHT22;8864;51.970;4.614;2022-11-15T01:59:47;17.00;72.80
17495;DHT22;8864;51.970;4.614;2022-11-15T02:02:14;17.00;72.80
17495;DHT22;8864;51.970;4.614;2022-11-15T02:04:43;17.00;72.80
17495;DHT22;8864;51.970;4.614;2022-11-15T02:07:12;16.90;72.80
17495;DHT22;8864;51.970;4.614;2022-11-15T02:09:42;16.90;72.80
17495;DHT22;8864;51.970;4.614;2022-11-15T02:12:10;17.00;72.80
17495;DHT22;8864;51.970;4.614;2022-11-15T02:14:40;17.00;72.80
17495;DHT22;8864;51.970;4.614;2022-11-15T02:17:18;17.00;72.80
17495;DHT22;8864;51.970;4.614;2022-11-15T02:26:26;17.00;73.00
17495;DHT22;8864;51.970;4.614;2022-11-15T02:29:01;16.90;73.00
17495;DHT22;8864;51.970;4.614;2022-11-15T02:31:38;17.00;73.10
17495;DHT22;8864;51.970;4.614;2022-11-15T02:34:14;16.90;73.00
17495;DHT22;8864;51.970;4.614;2022-11-15T02:36:52;17.00;73.10
17495;DHT22;8864;51.970;4.614;2022-11-15T02:39:28;16.90;73.00
17495;DHT22;8864;51.970;4.614;2022-11-15T02:42:02;16.90;73.10
17495;DHT22;8864;51.970;4.614;2022-11-15T02:44:34;16.90;73.10
17495;DHT22;8864;51.970;4.614;2022-11-15T02:47:05;16.90;73.10
17495;DHT22;8864;51.970;4.614;2022-11-15T02:49:42;17.00;73.10
17495;DHT22;8864;51.970;4.614;2022-11-15T02:52:14;16.90;73.10
17495;DHT22;8864;51.970;4.614;2022-11-15T02:54:41;17.00;73.20
17495;DHT22;8864;51.970;4.614;2022-11-15T02:57:13;17.00;73.20
17495;DHT22;8864;51.970;4.614;2022-11-15T03:00:03;17.00;73.20
17495;DHT22;8864;51.970;4.614;2022-11-15T03:02:48;17.00;73.30
17495;DHT22;8864;51.970;4.614;2022-11-15T03:05:24;17.00;73.30
17495;DHT22;8864;51.970;4.614;2022-11-15T03:07:55;17.00;73.30
17495;DHT22;8864;51.970;4.614;2022-11-15T03:10:29;17.00;73.30
17495;DHT22;8864;51.970;4.614;2022-11-15T03:13:02;17.00;73.30
17495;DHT22;8864;51.970;4.614;2022-11-15T03:15:37;17.00;73.40
17495;DHT22;8864;51.970;4.614;2022-11-15T03:18:12;17.00;73.40
17495;DHT22;8864;51.970;4.614;2022-11-15T03:20:42;17.00;73.40
17495;DHT22;8864;51.970;4.614;2022-11-15T03:23:10;17.00;73.50
17495;DHT22;8864;51.970;4.614;2022-11-15T03:25:43;16.90;73.40
17495;DHT22;8864;51.970;4.614;2022-11-15T03:28:15;17.00;73.60
17495;DHT22;8864;51.970;4.614;2022-11-15T03:30:44;17.00;73.60
17495;DHT22;8864;51.970;4.614;2022-11-15T03:33:14;17.00;73.70
17495;DHT22;8864;51.970;4.614;2022-11-15T03:35:43;17.00;73.70
17495;DHT22;8864;51.970;4.614;2022-11-15T03:38:15;17.00;73.70
17495;DHT22;8864;51.970;4.614;2022-11-15T03:40:54;17.00;73.70
17495;DHT22;8864;51.970;4.614;2022-11-15T03:43:27;17.00;73.80
17495;DHT22;8864;51.970;4.614;2022-11-15T03:45:59;17.00;73.80
17495;DHT22;8864;51.970;4.614;2022-11-15T03:48:33;17.00;73.80
17495;DHT22;8864;51.970;4.614;2022-11-15T03:51:02;17.00;73.90
17495;DHT22;8864;51.970;4.614;2022-11-15T03:53:30;17.00;73.90
17495;DHT22;8864;51.970;4.614;2022-11-15T03:55:57;17.00;74.70
17495;DHT22;8864;51.970;4.614;2022-11-15T03:58:24;17.00;74.00
17495;DHT22;8864;51.970;4.614;2022-11-15T04:00:51;17.00;74.80
17495;DHT22;8864;51.970;4.614;2022-11-15T04:03:18;17.00;74.10
17495;DHT22;8864;51.970;4.614;2022-11-15T04:05:46;17.00;74.10
17495;DHT22;8864;51.970;4.614;2022-11-15T04:08:13;17.00;74.10
17495;DHT22;8864;51.970;4.614;2022-11-15T04:10:39;17.00;74.20
17495;DHT22;8864;51.970;4.614;2022-11-15T04:13:06;17.00;74.20
17495;DHT22;8864;51.970;4.614;2022-11-15T04:15:33;17.00;74.30
17495;DHT22;8864;51.970;4.614;2022-11-15T04:18:00;17.00;74.30
17495;DHT22;8864;51.970;4.614;2022-11-15T04:20:29;17.00;74.40
17495;DHT22;8864;51.970;4.614;2022-11-15T04:23:16;17.00;74.50
17495;DHT22;8864;51.970;4.614;2022-11-15T04:26:03;17.00;74.60
17495;DHT22;8864;51.970;4.614;2022-11-15T04:28:30;17.00;74.60
17495;DHT22;8864;51.970;4.614;2022-11-15T04:30:57;17.00;74.60
17495;DHT22;8864;51.970;4.614;2022-11-15T04:33:24;17.00;74.70
17495;DHT22;8864;51.970;4.614;2022-11-15T04:35:51;17.00;74.80
17495;DHT22;8864;51.970;4.614;2022-11-15T04:38:33;17.00;74.90
17495;DHT22;8864;51.970;4.614;2022-11-15T04:41:00;17.00;74.90
17495;DHT22;8864;51.970;4.614;2022-11-15T04:43:27;17.00;75.00
17495;DHT22;8864;51.970;4.614;2022-11-15T04:45:54;17.00;75.00
17495;DHT22;8864;51.970;4.614;2022-11-15T04:48:21;17.00;75.10
17495;DHT22;8864;51.970;4.614;2022-11-15T04:50:48;17.00;75.20
17495;DHT22;8864;51.970;4.614;2022-11-15T04:53:15;17.00;75.30
17495;DHT22;8864;51.970;4.614;2022-11-15T04:55:45;17.00;75.20
17495;DHT22;8864;51.970;4.614;2022-11-15T04:58:12;17.00;75.30
17495;DHT22;8864;51.970;4.614;2022-11-15T05:00:39;17.00;75.20
17495;DHT22;8864;51.970;4.614;2022-11-15T05:03:06;17.00;75.30
17495;DHT22;8864;51.970;4.614;2022-11-15T05:05:51;17.00;75.30
17495;DHT22;8864;51.970;4.614;2022-11-15T05:08:18;17.00;75.30
17495;DHT22;8864;51.970;4.614;2022-11-15T05:10:46;17.00;75.30
17495;DHT22;8864;51.970;4.614;2022-11-15T05:13:13;17.00;75.30
17495;DHT22;8864;51.970;4.614;2022-11-15T05:15:40;17.00;75.40
17495;DHT22;8864;51.970;4.614;2022-11-15T05:18:07;17.00;75.40
17495;DHT22;8864;51.970;4.614;2022-11-15T05:20:34;17.00;75.40
17495;DHT22;8864;51.970;4.614;2022-11-15T05:23:00;17.00;75.40
17495;DHT22;8864;51.970;4.614;2022-11-15T05:25:27;17.00;75.40
17495;DHT22;8864;51.970;4.614;2022-11-15T05:27:55;17.00;75.50
17495;DHT22;8864;51.970;4.614;2022-11-15T05:30:22;17.00;75.50
17495;DHT22;8864;51.970;4.614;2022-11-15T05:32:50;17.00;75.50
17495;DHT22;8864;51.970;4.614;2022-11-15T05:35:22;17.00;75.50
17495;DHT22;8864;51.970;4.614;2022-11-15T05:37:53;17.00;76.30
17495;DHT22;8864;51.970;4.614;2022-11-15T05:40:20;17.00;75.60
17495;DHT22;8864;51.970;4.614;2022-11-15T05:42:48;17.00;75.60
17495;DHT22;8864;51.970;4.614;2022-11-15T05:45:16;17.00;75.60
17495;DHT22;8864;51.970;4.614;2022-11-15T05:47:44;17.00;75.70
17495;DHT22;8864;51.970;4.614;2022-11-15T05:50:12;17.00;75.60
17495;DHT22;8864;51.970;4.614;2022-11-15T05:52:39;17.00;75.70
17495;DHT22;8864;51.970;4.614;2022-11-15T05:55:07;17.00;75.70
17495;DHT22;8864;51.970;4.614;2022-11-15T05:57:35;17.00;75.70
17495;DHT22;8864;51.970;4.614;2022-11-15T06:00:03;17.00;75.70
17495;DHT22;8864;51.970;4.614;2022-11-15T06:02:31;17.00;75.70
17495;DHT22;8864;51.970;4.614;2022-11-15T06:04:58;17.00;75.90
17495;DHT22;8864;51.970;4.614;2022-11-15T06:07:25;17.00;75.80
17495;DHT22;8864;51.970;4.614;2022-11-15T06:09:52;17.00;76.00
17495;DHT22;8864;51.970;4.614;2022-11-15T06:12:18;17.00;76.00
17495;DHT22;8864;51.970;4.614;2022-11-15T06:14:45;17.00;76.30
17495;DHT22;8864;51.970;4.614;2022-11-15T06:17:12;17.00;76.30
17495;DHT22;8864;51.970;4.614;2022-11-15T06:19:40;17.00;76.20
17495;DHT22;8864;51.970;4.614;2022-11-15T06:22:07;17.00;76.20
17495;DHT22;8864;51.970;4.614;2022-11-15T06:24:34;17.00;76.20
17495;DHT22;8864;51.970;4.614;2022-11-15T06:27:01;17.00;76.10
17495;DHT22;8864;51.970;4.614;2022-11-15T06:29:28;17.00;76.10
17495;DHT22;8864;51.970;4.614;2022-11-15T06:31:55;17.00;76.10
17495;DHT22;8864;51.970;4.614;2022-11-15T06:34:22;17.00;76.30
17495;DHT22;8864;51.970;4.614;2022-11-15T06:36:50;17.00;76.30
17495;DHT22;8864;51.970;4.614;2022-11-15T06:39:16;17.00;76.30
17495;DHT22;8864;51.970;4.614;2022-11-15T06:41:43;17.00;76.20
17495;DHT22;8864;51.970;4.614;2022-11-15T06:44:10;17.00;76.20
17495;DHT22;8864;51.970;4.614;2022-11-15T06:46:37;17.00;76.10
17495;DHT22;8864;51.970;4.614;2022-11-15T06:49:03;17.10;76.10
17495;DHT22;8864;51.970;4.614;2022-11-15T06:51:30;17.00;76.00
17495;DHT22;8864;51.970;4.614;2022-11-15T06:53:59;17.10;76.00
17495;DHT22;8864;51.970;4.614;2022-11-15T06:56:25;17.00;75.90
17495;DHT22;8864;51.970;4.614;2022-11-15T06:58:52;17.00;75.80
17495;DHT22;8864;51.970;4.614;2022-11-15T07:01:19;17.00;75.80
17495;DHT22;8864;51.970;4.614;2022-11-15T07:03:45;17.00;75.70
17495;DHT22;8864;51.970;4.614;2022-11-15T07:06:12;17.00;75.70
17495;DHT22;8864;51.970;4.614;2022-11-15T07:08:39;17.00;75.70
17495;DHT22;8864;51.970;4.614;2022-11-15T07:11:08;17.00;75.70
17495;DHT22;8864;51.970;4.614;2022-11-15T07:13:36;17.00;75.70
17495;DHT22;8864;51.970;4.614;2022-11-15T07:16:04;17.00;75.60
17495;DHT22;8864;51.970;4.614;2022-11-15T07:18:33;17.00;75.60
17495;DHT22;8864;51.970;4.614;2022-11-15T07:21:01;17.00;75.60
17495;DHT22;8864;51.970;4.614;2022-11-15T07:23:28;17.00;75.60
17495;DHT22;8864;51.970;4.614;2022-11-15T07:25:56;17.00;75.50
17495;DHT22;8864;51.970;4.614;2022-11-15T07:28:26;17.10;75.60
17495;DHT22;8864;51.970;4.614;2022-11-15T07:30:53;17.00;75.60
17495;DHT22;8864;51.970;4.614;2022-11-15T07:33:20;17.10;76.40
17495;DHT22;8864;51.970;4.614;2022-11-15T07:35:47;17.10;76.90
17495;DHT22;8864;51.970;4.614;2022-11-15T07:38:17;17.10;76.60
17495;DHT22;8864;51.970;4.614;2022-11-15T07:40:45;17.10;76.80
17495;DHT22;8864;51.970;4.614;2022-11-15T07:43:12;17.10;78.60
17495;DHT22;8864;51.970;4.614;2022-11-15T07:45:45;17.10;77.90
17495;DHT22;8864;51.970;4.614;2022-11-15T07:48:11;17.10;77.30
17495;DHT22;8864;51.970;4.614;2022-11-15T07:50:40;17.20;77.00
17495;DHT22;8864;51.970;4.614;2022-11-15T07:53:09;17.10;76.90
17495;DHT22;8864;51.970;4.614;2022-11-15T07:55:36;17.10;77.00
17495;DHT22;8864;51.970;4.614;2022-11-15T07:58:04;17.10;77.20
17495;DHT22;8864;51.970;4.614;2022-11-15T08:00:31;17.10;77.40
17495;DHT22;8864;51.970;4.614;2022-11-15T08:03:03;17.10;77.30
17495;DHT22;8864;51.970;4.614;2022-11-15T08:05:30;17.20;77.30
17495;DHT22;8864;51.970;4.614;2022-11-15T08:07:57;17.10;77.10
17495;DHT22;8864;51.970;4.614;2022-11-15T08:10:24;17.20;77.90
17495;DHT22;8864;51.970;4.614;2022-11-15T08:12:57;17.20;77.70
17495;DHT22;8864;51.970;4.614;2022-11-15T08:15:24;17.20;77.60
17495;DHT22;8864;51.970;4.614;2022-11-15T08:17:54;17.20;77.40
17495;DHT22;8864;51.970;4.614;2022-11-15T08:20:22;17.20;77.10
17495;DHT22;8864;51.970;4.614;2022-11-15T08:22:49;17.20;76.90
17495;DHT22;8864;51.970;4.614;2022-11-15T08:25:16;17.20;76.70
17495;DHT22;8864;51.970;4.614;2022-11-15T08:27:43;17.20;76.60
17495;DHT22;8864;51.970;4.614;2022-11-15T08:30:11;17.20;76.60
17495;DHT22;8864;51.970;4.614;2022-11-15T08:32:39;17.20;76.60
17495;DHT22;8864;51.970;4.614;2022-11-15T08:35:06;17.20;76.50
17495;DHT22;8864;51.970;4.614;2022-11-15T08:37:35;17.20;76.20
17495;DHT22;8864;51.970;4.614;2022-11-15T08:40:02;17.20;76.20
17495;DHT22;8864;51.970;4.614;2022-11-15T08:42:29;17.20;76.20
17495;DHT22;8864;51.970;4.614;2022-11-15T08:44:56;17.20;76.00
17495;DHT22;8864;51.970;4.614;2022-11-15T08:47:23;17.20;75.90
17495;DHT22;8864;51.970;4.614;2022-11-15T08:49:49;17.20;75.90
17495;DHT22;8864;51.970;4.614;2022-11-15T08:52:16;17.20;75.70
17495;DHT22;8864;51.970;4.614;2022-11-15T08:54:44;17.20;75.50
17495;DHT22;8864;51.970;4.614;2022-11-15T08:57:11;17.20;75.70
17495;DHT22;8864;51.970;4.614;2022-11-15T08:59:38;17.20;75.90
17495;DHT22;8864;51.970;4.614;2022-11-15T09:02:05;17.20;75.90
17495;DHT22;8864;51.970;4.614;2022-11-15T09:04:32;17.20;75.90
17495;DHT22;8864;51.970;4.614;2022-11-15T09:06:59;17.20;75.90
17495;DHT22;8864;51.970;4.614;2022-11-15T09:09:25;17.20;75.90
17495;DHT22;8864;51.970;4.614;2022-11-15T09:11:54;17.20;76.00
17495;DHT22;8864;51.970;4.614;2022-11-15T09:14:20;17.20;76.30
17495;DHT22;8864;51.970;4.614;2022-11-15T09:16:47;17.20;76.50
17495;DHT22;8864;51.970;4.614;2022-11-15T09:19:14;17.20;76.50
17495;DHT22;8864;51.970;4.614;2022-11-15T09:21:41;17.20;76.50
17495;DHT22;8864;51.970;4.614;2022-11-15T09:24:08;17.20;76.50
17495;DHT22;8864;51.970;4.614;2022-11-15T09:26:35;17.20;76.50
17495;DHT22;8864;51.970;4.614;2022-11-15T09:29:03;17.20;76.60
17495;DHT22;8864;51.970;4.614;2022-11-15T09:31:30;17.20;76.70
17495;DHT22;8864;51.970;4.614;2022-11-15T09:33:56;17.30;77.00
17495;DHT22;8864;51.970;4.614;2022-11-15T09:36:23;17.20;77.00
17495;DHT22;8864;51.970;4.614;2022-11-15T09:38:50;17.30;77.10
17495;DHT22;8864;51.970;4.614;2022-11-15T09:41:32;17.30;77.40
17495;DHT22;8864;51.970;4.614;2022-11-15T09:44:14;17.30;77.40
17495;DHT22;8864;51.970;4.614;2022-11-15T09:46:52;17.30;77.50
17495;DHT22;8864;51.970;4.614;2022-11-15T09:49:23;17.30;77.50
17495;DHT22;8864;51.970;4.614;2022-11-15T09:51:51;17.30;77.40
17495;DHT22;8864;51.970;4.614;2022-11-15T09:54:27;17.30;77.50
17495;DHT22;8864;51.970;4.614;2022-11-15T09:56:56;17.30;77.70
17495;DHT22;8864;51.970;4.614;2022-11-15T09:59:48;17.30;77.70
17495;DHT22;8864;51.970;4.614;2022-11-15T10:02:30;17.30;77.60
17495;DHT22;8864;51.970;4.614;2022-11-15T10:05:00;17.30;77.50
17495;DHT22;8864;51.970;4.614;2022-11-15T10:07:34;17.30;77.40
17495;DHT22;8864;51.970;4.614;2022-11-15T10:10:13;17.30;77.40
17495;DHT22;8864;51.970;4.614;2022-11-15T10:12:45;17.30;77.40
17495;DHT22;8864;51.970;4.614;2022-11-15T10:15:18;17.30;77.40
17495;DHT22;8864;51.970;4.614;2022-11-15T10:18:09;17.30;77.40
17495;DHT22;8864;51.970;4.614;2022-11-15T10:20:46;17.30;77.30
17495;DHT22;8864;51.970;4.614;2022-11-15T10:23:15;17.30;77.70
17495;DHT22;8864;51.970;4.614;2022-11-15T10:25:43;17.30;77.30
17495;DHT22;8864;51.970;4.614;2022-11-15T10:28:13;17.30;77.20
17495;DHT22;8864;51.970;4.614;2022-11-15T10:30:43;17.30;77.30
17495;DHT22;8864;51.970;4.614;2022-11-15T10:33:17;17.30;77.30
17495;DHT22;8864;51.970;4.614;2022-11-15T10:35:45;17.30;77.30
17495;DHT22;8864;51.970;4.614;2022-11-15T10:38:12;17.30;77.30
17495;DHT22;8864;51.970;4.614;2022-11-15T10:40:40;17.30;77.30
17495;DHT22;8864;51.970;4.614;2022-11-15T10:43:15;17.40;77.30
17495;DHT22;8864;51.970;4.614;2022-11-15T10:45:44;17.30;77.30
17495;DHT22;8864;51.970;4.614;2022-11-15T10:48:23;17.40;77.30
17495;DHT22;8864;51.970;4.614;2022-11-15T10:50:51;17.40;77.30
17495;DHT22;8864;51.970;4.614;2022-11-15T10:53:27;17.40;77.20
17495;DHT22;8864;51.970;4.614;2022-11-15T10:55:59;17.40;77.20
17495;DHT22;8864;51.970;4.614;2022-11-15T10:58:32;17.40;77.20
17495;DHT22;8864;51.970;4.614;2022-11-15T11:01:14;17.40;77.30
17495;DHT22;8864;51.970;4.614;2022-11-15T11:03:42;17.40;77.20
17495;DHT22;8864;51.970;4.614;2022-11-15T11:06:11;17.40;77.30
17495;DHT22;8864;51.970;4.614;2022-11-15T11:08:39;17.40;77.20
17495;DHT22;8864;51.970;4.614;2022-11-15T11:11:06;17.40;78.30
17495;DHT22;8864;51.970;4.614;2022-11-15T11:13:35;17.40;78.30
17495;DHT22;8864;51.970;4.614;2022-11-15T11:16:28;17.40;78.00
17495;DHT22;8864;51.970;4.614;2022-11-15T11:19:10;17.50;77.70
17495;DHT22;8864;51.970;4.614;2022-11-15T11:21:49;17.50;77.70
17495;DHT22;8864;51.970;4.614;2022-11-15T11:24:22;17.40;77.40
17495;DHT22;8864;51.970;4.614;2022-11-15T11:27:03;17.40;77.30
17495;DHT22;8864;51.970;4.614;2022-11-15T11:29:41;17.50;77.20
17495;DHT22;8864;51.970;4.614;2022-11-15T11:32:24;17.50;77.10
17495;DHT22;8864;51.970;4.614;2022-11-15T11:34:58;17.50;77.00
17495;DHT22;8864;51.970;4.614;2022-11-15T11:37:32;17.50;77.40
17495;DHT22;8864;51.970;4.614;2022-11-15T11:40:13;17.50;77.40
17495;DHT22;8864;51.970;4.614;2022-11-15T11:42:47;17.50;77.20
17495;DHT22;8864;51.970;4.614;2022-11-15T11:45:26;17.50;77.00
17495;DHT22;8864;51.970;4.614;2022-11-15T11:48:02;17.50;76.80
17495;DHT22;8864;51.970;4.614;2022-11-15T11:50:37;17.50;76.80
17495;DHT22;8864;51.970;4.614;2022-11-15T11:53:11;17.50;76.60
17495;DHT22;8864;51.970;4.614;2022-11-15T11:55:42;17.50;76.50
17495;DHT22;8864;51.970;4.614;2022-11-15T11:58:14;17.60;76.50
17495;DHT22;8864;51.970;4.614;2022-11-15T12:00:47;17.50;76.30
17495;DHT22;8864;51.970;4.614;2022-11-15T12:03:24;17.60;76.30
17495;DHT22;8864;51.970;4.614;2022-11-15T12:05:54;17.60;76.20
17495;DHT22;8864;51.970;4.614;2022-11-15T12:08:29;17.60;76.20
17495;DHT22;8864;51.970;4.614;2022-11-15T12:11:03;17.60;76.00
17495;DHT22;8864;51.970;4.614;2022-11-15T12:13:34;17.60;75.90
17495;DHT22;8864;51.970;4.614;2022-11-15T12:16:05;17.70;75.80
17495;DHT22;8864;51.970;4.614;2022-11-15T12:18:36;17.70;75.70
17495;DHT22;8864;51.970;4.614;2022-11-15T12:21:06;17.70;75.60
17495;DHT22;8864;51.970;4.614;2022-11-15T12:23:40;17.70;75.50
17495;DHT22;8864;51.970;4.614;2022-11-15T12:26:11;17.70;75.40
17495;DHT22;8864;51.970;4.614;2022-11-15T12:28:44;17.70;75.30
17495;DHT22;8864;51.970;4.614;2022-11-15T12:31:14;17.70;75.30
17495;DHT22;8864;51.970;4.614;2022-11-15T12:33:45;17.70;75.10
17495;DHT22;8864;51.970;4.614;2022-11-15T12:36:35;17.70;75.10
17495;DHT22;8864;51.970;4.614;2022-11-15T12:39:04;17.80;75.20
17495;DHT22;8864;51.970;4.614;2022-11-15T12:41:32;17.80;75.10
17495;DHT22;8864;51.970;4.614;2022-11-15T12:43:59;17.80;75.10
17495;DHT22;8864;51.970;4.614;2022-11-15T12:47:01;17.70;75.30
17495;DHT22;8864;51.970;4.614;2022-11-15T12:49:45;17.70;75.60
17495;DHT22;8864;51.970;4.614;2022-11-15T12:52:12;17.70;75.60
17495;DHT22;8864;51.970;4.614;2022-11-15T12:54:58;17.70;75.40
17495;DHT22;8864;51.970;4.614;2022-11-15T12:57:42;17.70;75.40
17495;DHT22;8864;51.970;4.614;2022-11-15T13:03:25;17.70;75.40
17495;DHT22;8864;51.970;4.614;2022-11-15T13:06:03;17.70;75.40
17495;DHT22;8864;51.970;4.614;2022-11-15T13:08:49;17.70;76.10
17495;DHT22;8864;51.970;4.614;2022-11-15T13:11:44;17.70;75.30
17495;DHT22;8864;51.970;4.614;2022-11-15T13:14:46;17.70;75.40
17495;DHT22;8864;51.970;4.614;2022-11-15T13:17:31;17.70;75.40
17495;DHT22;8864;51.970;4.614;2022-11-15T13:20:07;17.70;75.60
17495;DHT22;8864;51.970;4.614;2022-11-15T13:22:40;17.70;75.60
17495;DHT22;8864;51.970;4.614;2022-11-15T13:28:44;17.70;75.50
17495;DHT22;8864;51.970;4.614;2022-11-15T13:31:30;17.70;75.60
17495;DHT22;8864;51.970;4.614;2022-11-15T13:34:03;17.70;75.60
17495;DHT22;8864;51.970;4.614;2022-11-15T13:36:40;17.70;75.50
17495;DHT22;8864;51.970;4.614;2022-11-15T13:39:23;17.70;75.40
17495;DHT22;8864;51.970;4.614;2022-11-15T13:41:51;17.70;75.30
17495;DHT22;8864;51.970;4.614;2022-11-15T13:44:21;17.70;75.30
17495;DHT22;8864;51.970;4.614;2022-11-15T13:46:48;17.70;75.40
17495;DHT22;8864;51.970;4.614;2022-11-15T13:49:14;17.70;75.40
17495;DHT22;8864;51.970;4.614;2022-11-15T13:51:44;17.70;75.10
17495;DHT22;8864;51.970;4.614;2022-11-15T13:54:18;17.70;75.00
17495;DHT22;8864;51.970;4.614;2022-11-15T13:56:48;17.70;75.00
17495;DHT22;8864;51.970;4.614;2022-11-15T13:59:24;17.70;74.90
17495;DHT22;8864;51.970;4.614;2022-11-15T14:01:51;17.70;74.80
17495;DHT22;8864;51.970;4.614;2022-11-15T14:04:22;17.70;74.80
17495;DHT22;8864;51.970;4.614;2022-11-15T14:06:52;17.70;74.60
17495;DHT22;8864;51.970;4.614;2022-11-15T14:09:34;17.70;74.50
17495;DHT22;8864;51.970;4.614;2022-11-15T14:12:02;17.70;74.50
17495;DHT22;8864;51.970;4.614;2022-11-15T14:14:47;17.70;74.30
17495;DHT22;8864;51.970;4.614;2022-11-15T14:17:20;17.70;74.20
17495;DHT22;8864;51.970;4.614;2022-11-15T14:19:49;17.70;74.00
17495;DHT22;8864;51.970;4.614;2022-11-15T14:22:19;17.60;73.90
17495;DHT22;8864;51.970;4.614;2022-11-15T14:25:14;17.60;73.90
17495;DHT22;8864;51.970;4.614;2022-11-15T14:27:42;17.60;73.80
17495;DHT22;8864;51.970;4.614;2022-11-15T14:30:13;17.60;73.70
17495;DHT22;8864;51.970;4.614;2022-11-15T14:32:44;17.60;73.70
17495;DHT22;8864;51.970;4.614;2022-11-15T14:35:14;17.60;73.70
17495;DHT22;8864;51.970;4.614;2022-11-15T14:37:43;17.60;73.70
17495;DHT22;8864;51.970;4.614;2022-11-15T14:40:15;17.60;73.70
17495;DHT22;8864;51.970;4.614;2022-11-15T14:42:43;17.60;73.90
17495;DHT22;8864;51.970;4.614;2022-11-15T14:45:13;17.60;73.90
17495;DHT22;8864;51.970;4.614;2022-11-15T14:47:40;17.60;73.70
17495;DHT22;8864;51.970;4.614;2022-11-15T14:50:11;17.60;73.90
17495;DHT22;8864;51.970;4.614;2022-11-15T14:52:38;17.60;73.80
17495;DHT22;8864;51.970;4.614;2022-11-15T14:55:14;17.70;73.70
17495;DHT22;8864;51.970;4.614;2022-11-15T14:57:42;17.70;73.60
17495;DHT22;8864;51.970;4.614;2022-11-15T15:00:10;17.60;73.40
17495;DHT22;8864;51.970;4.614;2022-11-15T15:02:38;17.60;73.30
17495;DHT22;8864;51.970;4.614;2022-11-15T15:05:13;17.60;73.30
17495;DHT22;8864;51.970;4.614;2022-11-15T15:07:40;17.60;73.30
17495;DHT22;8864;51.970;4.614;2022-11-15T15:10:08;17.70;73.30
17495;DHT22;8864;51.970;4.614;2022-11-15T15:12:36;17.60;73.10
17495;DHT22;8864;51.970;4.614;2022-11-15T15:15:03;17.60;73.10
17495;DHT22;8864;51.970;4.614;2022-11-15T15:17:30;17.60;73.30
17495;DHT22;8864;51.970;4.614;2022-11-15T15:19:57;17.60;73.40
17495;DHT22;8864;51.970;4.614;2022-11-15T15:22:26;17.60;73.60
17495;DHT22;8864;51.970;4.614;2022-11-15T15:24:54;17.60;73.60
17495;DHT22;8864;51.970;4.614;2022-11-15T15:27:21;17.60;73.60
17495;DHT22;8864;51.970;4.614;2022-11-15T15:29:49;17.60;73.60
17495;DHT22;8864;51.970;4.614;2022-11-15T15:32:16;17.60;73.60
17495;DHT22;8864;51.970;4.614;2022-11-15T15:34:43;17.60;73.50
17495;DHT22;8864;51.970;4.614;2022-11-15T15:37:21;17.60;73.60
17495;DHT22;8864;51.970;4.614;2022-11-15T15:39:49;17.60;73.70
17495;DHT22;8864;51.970;4.614;2022-11-15T15:42:16;17.60;73.80
17495;DHT22;8864;51.970;4.614;2022-11-15T15:44:43;17.60;73.80
17495;DHT22;8864;51.970;4.614;2022-11-15T15:47:12;17.60;73.80
17495;DHT22;8864;51.970;4.614;2022-11-15T15:49:40;17.60;73.70
17495;DHT22;8864;51.970;4.614;2022-11-15T15:52:06;17.60;73.80
17495;DHT22;8864;51.970;4.614;2022-11-15T15:54:33;17.60;73.80
17495;DHT22;8864;51.970;4.614;2022-11-15T15:57:00;17.60;73.90
17495;DHT22;8864;51.970;4.614;2022-11-15T15:59:27;17.60;73.90
17495;DHT22;8864;51.970;4.614;2022-11-15T16:01:53;17.60;73.90
17495;DHT22;8864;51.970;4.614;2022-11-15T16:04:22;17.60;74.10
17495;DHT22;8864;51.970;4.614;2022-11-15T16:06:49;17.60;74.30
17495;DHT22;8864;51.970;4.614;2022-11-15T16:09:18;17.60;75.10
17495;DHT22;8864;51.970;4.614;2022-11-15T16:12:05;17.60;74.40
17495;DHT22;8864;51.970;4.614;2022-11-15T16:14:32;17.50;74.30
17495;DHT22;8864;51.970;4.614;2022-11-15T16:16:59;17.60;74.50
17495;DHT22;8864;51.970;4.614;2022-11-15T16:19:27;17.60;74.50